sensor_id;sensor_type;location;lat;lon;timestamp;P1;durP1;ratioP1;P2;durP2;ratioP2
20232;SDS011;37438;55.674;13.074;2023-03-23T00:01:40;27.25;;;17.85;;
20232;SDS011;37438;55.674;13.074;2023-03-23T00:04:43;28.55;;;17.55;;
20232;SDS011;37438;55.674;13.074;2023-03-23T00:07:47;26.42;;;18.98;;
20232;SDS011;37438;55.674;13.074;2023-03-23T00:10:54;20.02;;;17.27;;
20232;SDS011;37438;55.674;13.074;2023-03-23T00:14:00;23.90;;;17.85;;
20232;SDS011;37438;55.674;13.074;2023-03-23T00:17:04;25.67;;;17.35;;
20232;SDS011;37438;55.674;13.074;2023-03-23T00:20:07;25.00;;;17.77;;
20232;SDS011;37438;55.674;13.074;2023-03-23T00:23:15;27.42;;;18.88;;
20232;SDS011;37438;55.674;13.074;2023-03-23T00:26:22;26.88;;;19.27;;
20232;SDS011;37438;55.674;13.074;2023-03-23T00:29:26;23.95;;;18.88;;
20232;SDS011;37438;55.674;13.074;2023-03-23T00:32:30;22.50;;;18.92;;
20232;SDS011;37438;55.674;13.074;2023-03-23T00:35:33;26.70;;;19.38;;
20232;SDS011;37438;55.674;13.074;2023-03-23T00:38:39;28.88;;;19.05;;
20232;SDS011;37438;55.674;13.074;2023-03-23T00:41:44;20.10;;;17.55;;
20232;SDS011;37438;55.674;13.074;2023-03-23T00:44:49;20.48;;;18.25;;
20232;SDS011;37438;55.674;13.074;2023-03-23T00:47:54;27.60;;;19.42;;
20232;SDS011;37438;55.674;13.074;2023-03-23T00:50:57;27.65;;;19.23;;
20232;SDS011;37438;55.674;13.074;2023-03-23T00:54:00;22.83;;;19.50;;
20232;SDS011;37438;55.674;13.074;2023-03-23T00:57:04;26.10;;;18.92;;
20232;SDS011;37438;55.674;13.074;2023-03-23T01:00:10;28.35;;;20.88;;
20232;SDS011;37438;55.674;13.074;2023-03-23T01:03:14;31.85;;;22.75;;
20232;SDS011;37438;55.674;13.074;2023-03-23T01:06:20;26.70;;;20.35;;
20232;SDS011;37438;55.674;13.074;2023-03-23T01:09:24;28.35;;;22.40;;
20232;SDS011;37438;55.674;13.074;2023-03-23T01:12:28;28.02;;;23.75;;
20232;SDS011;37438;55.674;13.074;2023-03-23T01:15:32;28.13;;;20.60;;
20232;SDS011;37438;55.674;13.074;2023-03-23T01:18:37;33.40;;;22.17;;
20232;SDS011;37438;55.674;13.074;2023-03-23T01:21:41;31.38;;;20.88;;
20232;SDS011;37438;55.674;13.074;2023-03-23T01:24:44;24.45;;;21.00;;
20232;SDS011;37438;55.674;13.074;2023-03-23T01:27:48;24.75;;;19.77;;
20232;SDS011;37438;55.674;13.074;2023-03-23T01:30:52;24.05;;;21.02;;
20232;SDS011;37438;55.674;13.074;2023-03-23T01:33:55;28.48;;;20.00;;
20232;SDS011;37438;55.674;13.074;2023-03-23T01:36:59;28.88;;;20.58;;
20232;SDS011;37438;55.674;13.074;2023-03-23T01:40:03;23.23;;;18.30;;
20232;SDS011;37438;55.674;13.074;2023-03-23T01:43:11;25.77;;;20.02;;
20232;SDS011;37438;55.674;13.074;2023-03-23T01:46:18;22.02;;;17.98;;
20232;SDS011;37438;55.674;13.074;2023-03-23T01:49:27;28.40;;;18.70;;
20232;SDS011;37438;55.674;13.074;2023-03-23T01:52:34;20.65;;;18.38;;
20232;SDS011;37438;55.674;13.074;2023-03-23T01:55:40;21.25;;;17.88;;
20232;SDS011;37438;55.674;13.074;2023-03-23T01:58:45;32.88;;;18.00;;
20232;SDS011;37438;55.674;13.074;2023-03-23T02:01:49;25.13;;;19.75;;
20232;SDS011;37438;55.674;13.074;2023-03-23T02:04:57;24.52;;;18.70;;
20232;SDS011;37438;55.674;13.074;2023-03-23T02:08:09;22.30;;;17.80;;
20232;SDS011;37438;55.674;13.074;2023-03-23T02:11:17;26.38;;;18.77;;
20232;SDS011;37438;55.674;13.074;2023-03-23T02:14:23;23.45;;;18.92;;
20232;SDS011;37438;55.674;13.074;2023-03-23T02:17:31;24.13;;;18.15;;
20232;SDS011;37438;55.674;13.074;2023-03-23T02:34:23;24.23;;;17.40;;
20232;SDS011;37438;55.674;13.074;2023-03-23T02:37:39;29.45;;;17.08;;
20232;SDS011;37438;55.674;13.074;2023-03-23T02:40:50;27.85;;;18.05;;
20232;SDS011;37438;55.674;13.074;2023-03-23T02:46:59;24.15;;;17.33;;
20232;SDS011;37438;55.674;13.074;2023-03-23T02:50:07;27.08;;;16.90;;
20232;SDS011;37438;55.674;13.074;2023-03-23T02:53:16;24.77;;;19.15;;
20232;SDS011;37438;55.674;13.074;2023-03-23T02:56:25;33.88;;;19.30;;
20232;SDS011;37438;55.674;13.074;2023-03-23T02:59:31;25.77;;;18.33;;
20232;SDS011;37438;55.674;13.074;2023-03-23T03:02:35;26.20;;;18.27;;
20232;SDS011;37438;55.674;13.074;2023-03-23T03:05:51;27.13;;;18.92;;
20232;SDS011;37438;55.674;13.074;2023-03-23T03:12:35;30.50;;;20.85;;
20232;SDS011;37438;55.674;13.074;2023-03-23T03:19:05;32.72;;;19.35;;
20232;SDS011;37438;55.674;13.074;2023-03-23T03:22:28;31.13;;;20.30;;
20232;SDS011;37438;55.674;13.074;2023-03-23T03:25:32;37.53;;;21.35;;
20232;SDS011;37438;55.674;13.074;2023-03-23T03:28:38;30.33;;;20.92;;
20232;SDS011;37438;55.674;13.074;2023-03-23T03:31:44;31.95;;;21.30;;
20232;SDS011;37438;55.674;13.074;2023-03-23T03:34:50;27.58;;;19.67;;
20232;SDS011;37438;55.674;13.074;2023-03-23T03:41:00;30.08;;;20.48;;
20232;SDS011;37438;55.674;13.074;2023-03-23T03:44:04;36.88;;;21.67;;
20232;SDS011;37438;55.674;13.074;2023-03-23T03:47:09;36.03;;;21.48;;
20232;SDS011;37438;55.674;13.074;2023-03-23T03:50:13;32.88;;;20.98;;
20232;SDS011;37438;55.674;13.074;2023-03-23T03:53:16;32.35;;;22.40;;
20232;SDS011;37438;55.674;13.074;2023-03-23T03:56:20;34.88;;;20.20;;
20232;SDS011;37438;55.674;13.074;2023-03-23T03:59:35;32.55;;;22.40;;
20232;SDS011;37438;55.674;13.074;2023-03-23T04:02:57;37.33;;;21.08;;
20232;SDS011;37438;55.674;13.074;2023-03-23T04:06:25;33.78;;;23.38;;
20232;SDS011;37438;55.674;13.074;2023-03-23T04:09:31;32.70;;;20.20;;
20232;SDS011;37438;55.674;13.074;2023-03-23T04:12:35;38.30;;;22.77;;
20232;SDS011;37438;55.674;13.074;2023-03-23T04:16:14;34.42;;;22.73;;
20232;SDS011;37438;55.674;13.074;2023-03-23T04:19:20;29.60;;;21.45;;
20232;SDS011;37438;55.674;13.074;2023-03-23T04:22:24;31.20;;;21.42;;
20232;SDS011;37438;55.674;13.074;2023-03-23T04:25:33;34.35;;;20.73;;
20232;SDS011;37438;55.674;13.074;2023-03-23T04:28:37;34.60;;;20.50;;
20232;SDS011;37438;55.674;13.074;2023-03-23T04:32:00;26.50;;;19.80;;
20232;SDS011;37438;55.674;13.074;2023-03-23T04:35:13;29.17;;;18.45;;
20232;SDS011;37438;55.674;13.074;2023-03-23T04:38:26;34.80;;;20.80;;
20232;SDS011;37438;55.674;13.074;2023-03-23T04:41:36;28.17;;;19.13;;
20232;SDS011;37438;55.674;13.074;2023-03-23T04:44:59;27.55;;;20.15;;
20232;SDS011;37438;55.674;13.074;2023-03-23T04:48:11;30.90;;;20.48;;
20232;SDS011;37438;55.674;13.074;2023-03-23T04:51:29;30.02;;;20.35;;
20232;SDS011;37438;55.674;13.074;2023-03-23T04:54:42;40.92;;;21.83;;
20232;SDS011;37438;55.674;13.074;2023-03-23T04:57:46;33.22;;;20.52;;
20232;SDS011;37438;55.674;13.074;2023-03-23T05:01:22;34.08;;;22.08;;
20232;SDS011;37438;55.674;13.074;2023-03-23T05:04:49;39.78;;;21.95;;
20232;SDS011;37438;55.674;13.074;2023-03-23T05:08:00;27.98;;;20.67;;
20232;SDS011;37438;55.674;13.074;2023-03-23T05:11:07;29.13;;;20.10;;
20232;SDS011;37438;55.674;13.074;2023-03-23T05:14:14;30.83;;;19.83;;
20232;SDS011;37438;55.674;13.074;2023-03-23T05:17:22;30.10;;;19.95;;
20232;SDS011;37438;55.674;13.074;2023-03-23T05:20:27;33.83;;;22.25;;
20232;SDS011;37438;55.674;13.074;2023-03-23T05:23:38;31.77;;;20.45;;
20232;SDS011;37438;55.674;13.074;2023-03-23T05:26:52;36.33;;;21.88;;
20232;SDS011;37438;55.674;13.074;2023-03-23T05:30:00;39.00;;;22.33;;
20232;SDS011;37438;55.674;13.074;2023-03-23T05:33:06;36.90;;;23.52;;
20232;SDS011;37438;55.674;13.074;2023-03-23T05:36:22;30.02;;;21.05;;
20232;SDS011;37438;55.674;13.074;2023-03-23T05:39:43;38.80;;;23.00;;
20232;SDS011;37438;55.674;13.074;2023-03-23T05:42:51;38.65;;;22.58;;
20232;SDS011;37438;55.674;13.074;2023-03-23T05:46:01;33.20;;;21.48;;
20232;SDS011;37438;55.674;13.074;2023-03-23T05:49:06;36.15;;;19.95;;
20232;SDS011;37438;55.674;13.074;2023-03-23T05:52:14;28.88;;;17.65;;
20232;SDS011;37438;55.674;13.074;2023-03-23T05:55:18;31.27;;;19.20;;
20232;SDS011;37438;55.674;13.074;2023-03-23T05:58:30;31.15;;;19.58;;
20232;SDS011;37438;55.674;13.074;2023-03-23T06:01:34;24.10;;;15.13;;
20232;SDS011;37438;55.674;13.074;2023-03-23T06:04:37;25.38;;;16.20;;
20232;SDS011;37438;55.674;13.074;2023-03-23T06:07:52;20.38;;;13.40;;
20232;SDS011;37438;55.674;13.074;2023-03-23T06:10:57;16.25;;;12.98;;
20232;SDS011;37438;55.674;13.074;2023-03-23T06:14:00;17.77;;;12.05;;
20232;SDS011;37438;55.674;13.074;2023-03-23T06:17:06;19.58;;;12.05;;
20232;SDS011;37438;55.674;13.074;2023-03-23T06:20:11;20.17;;;13.40;;
20232;SDS011;37438;55.674;13.074;2023-03-23T06:23:17;22.33;;;14.95;;
20232;SDS011;37438;55.674;13.074;2023-03-23T06:26:21;25.90;;;13.63;;
20232;SDS011;37438;55.674;13.074;2023-03-23T06:29:34;20.00;;;14.27;;
20232;SDS011;37438;55.674;13.074;2023-03-23T06:32:38;18.90;;;13.68;;
20232;SDS011;37438;55.674;13.074;2023-03-23T06:35:45;16.92;;;13.30;;
20232;SDS011;37438;55.674;13.074;2023-03-23T06:39:08;18.58;;;11.57;;
20232;SDS011;37438;55.674;13.074;2023-03-23T06:42:39;17.88;;;11.23;;
20232;SDS011;37438;55.674;13.074;2023-03-23T06:46:00;19.70;;;12.95;;
20232;SDS011;37438;55.674;13.074;2023-03-23T06:49:13;15.82;;;10.60;;
20232;SDS011;37438;55.674;13.074;2023-03-23T06:52:25;16.85;;;10.10;;
20232;SDS011;37438;55.674;13.074;2023-03-23T06:55:30;16.08;;;9.73;;
20232;SDS011;37438;55.674;13.074;2023-03-23T06:58:33;14.57;;;8.77;;
20232;SDS011;37438;55.674;13.074;2023-03-23T07:01:38;17.48;;;9.05;;
20232;SDS011;37438;55.674;13.074;2023-03-23T07:04:42;18.20;;;8.35;;
20232;SDS011;37438;55.674;13.074;2023-03-23T07:07:52;15.13;;;7.55;;
20232;SDS011;37438;55.674;13.074;2023-03-23T07:11:06;15.70;;;6.90;;
20232;SDS011;37438;55.674;13.074;2023-03-23T07:14:11;9.07;;;5.55;;
20232;SDS011;37438;55.674;13.074;2023-03-23T07:17:16;13.00;;;6.40;;
20232;SDS011;37438;55.674;13.074;2023-03-23T07:20:46;7.28;;;4.47;;
20232;SDS011;37438;55.674;13.074;2023-03-23T07:23:51;6.72;;;2.97;;
20232;SDS011;37438;55.674;13.074;2023-03-23T07:27:15;2.60;;;2.22;;
20232;SDS011;37438;55.674;13.074;2023-03-23T07:30:19;3.92;;;2.28;;
20232;SDS011;37438;55.674;13.074;2023-03-23T07:33:23;3.20;;;1.47;;
20232;SDS011;37438;55.674;13.074;2023-03-23T07:36:27;3.33;;;1.05;;
20232;SDS011;37438;55.674;13.074;2023-03-23T07:39:30;3.97;;;1.15;;
20232;SDS011;37438;55.674;13.074;2023-03-23T07:42:36;2.92;;;1.55;;
20232;SDS011;37438;55.674;13.074;2023-03-23T07:45:40;2.20;;;1.37;;
20232;SDS011;37438;55.674;13.074;2023-03-23T07:48:44;2.88;;;0.93;;
20232;SDS011;37438;55.674;13.074;2023-03-23T07:51:47;4.25;;;1.10;;
20232;SDS011;37438;55.674;13.074;2023-03-23T07:54:52;3.72;;;0.98;;
20232;SDS011;37438;55.674;13.074;2023-03-23T07:58:06;2.53;;;1.10;;
20232;SDS011;37438;55.674;13.074;2023-03-23T08:01:10;1.98;;;0.88;;
20232;SDS011;37438;55.674;13.074;2023-03-23T08:04:13;4.03;;;0.52;;
20232;SDS011;37438;55.674;13.074;2023-03-23T08:07:38;5.83;;;0.60;;
20232;SDS011;37438;55.674;13.074;2023-03-23T08:10:53;5.75;;;0.47;;
20232;SDS011;37438;55.674;13.074;2023-03-23T08:14:16;0.50;;;0.50;;
20232;SDS011;37438;55.674;13.074;2023-03-23T08:17:33;2.90;;;1.08;;
20232;SDS011;37438;55.674;13.074;2023-03-23T08:20:53;6.47;;;1.42;;
20232;SDS011;37438;55.674;13.074;2023-03-23T08:24:09;1.00;;;0.73;;
20232;SDS011;37438;55.674;13.074;2023-03-23T08:27:24;2.30;;;0.60;;
20232;SDS011;37438;55.674;13.074;2023-03-23T08:30:44;2.28;;;0.40;;
20232;SDS011;37438;55.674;13.074;2023-03-23T08:33:58;0.22;;;0.20;;
20232;SDS011;37438;55.674;13.074;2023-03-23T08:41:14;2.92;;;0.22;;
20232;SDS011;37438;55.674;13.074;2023-03-23T08:44:37;0.93;;;0.30;;
20232;SDS011;37438;55.674;13.074;2023-03-23T08:48:05;0.77;;;0.22;;
20232;SDS011;37438;55.674;13.074;2023-03-23T08:51:13;0.60;;;0.28;;
20232;SDS011;37438;55.674;13.074;2023-03-23T08:54:16;1.65;;;0.75;;
20232;SDS011;37438;55.674;13.074;2023-03-23T08:57:32;1.02;;;0.55;;
20232;SDS011;37438;55.674;13.074;2023-03-23T09:00:49;0.73;;;0.35;;
20232;SDS011;37438;55.674;13.074;2023-03-23T09:04:03;3.38;;;0.68;;
20232;SDS011;37438;55.674;13.074;2023-03-23T09:07:28;1.13;;;0.40;;
20232;SDS011;37438;55.674;13.074;2023-03-23T09:10:31;2.55;;;0.47;;
20232;SDS011;37438;55.674;13.074;2023-03-23T09:13:35;2.00;;;0.60;;
20232;SDS011;37438;55.674;13.074;2023-03-23T09:16:40;1.92;;;0.95;;
20232;SDS011;37438;55.674;13.074;2023-03-23T09:19:43;2.83;;;0.95;;
20232;SDS011;37438;55.674;13.074;2023-03-23T09:22:49;0.83;;;0.83;;
20232;SDS011;37438;55.674;13.074;2023-03-23T09:25:53;3.65;;;1.48;;
20232;SDS011;37438;55.674;13.074;2023-03-23T09:28:57;2.55;;;1.15;;
20232;SDS011;37438;55.674;13.074;2023-03-23T09:32:01;3.08;;;0.80;;
20232;SDS011;37438;55.674;13.074;2023-03-23T09:35:05;6.22;;;1.88;;
20232;SDS011;37438;55.674;13.074;2023-03-23T09:38:11;3.00;;;1.10;;
20232;SDS011;37438;55.674;13.074;2023-03-23T09:44:57;1.67;;;0.98;;
20232;SDS011;37438;55.674;13.074;2023-03-23T09:48:29;2.58;;;0.90;;
20232;SDS011;37438;55.674;13.074;2023-03-23T09:51:55;3.85;;;1.00;;
20232;SDS011;37438;55.674;13.074;2023-03-23T09:55:02;3.78;;;1.30;;
20232;SDS011;37438;55.674;13.074;2023-03-23T09:58:11;4.95;;;1.20;;
20232;SDS011;37438;55.674;13.074;2023-03-23T10:01:22;1.75;;;1.17;;
20232;SDS011;37438;55.674;13.074;2023-03-23T10:04:48;3.13;;;1.30;;
20232;SDS011;37438;55.674;13.074;2023-03-23T10:07:54;2.47;;;1.95;;
20232;SDS011;37438;55.674;13.074;2023-03-23T10:11:02;3.08;;;1.80;;
20232;SDS011;37438;55.674;13.074;2023-03-23T10:21:00;2.65;;;0.80;;
20232;SDS011;37438;55.674;13.074;2023-03-23T10:24:09;4.72;;;1.67;;
20232;SDS011;37438;55.674;13.074;2023-03-23T10:27:19;8.98;;;4.05;;
20232;SDS011;37438;55.674;13.074;2023-03-23T10:30:33;7.47;;;3.63;;
20232;SDS011;37438;55.674;13.074;2023-03-23T10:33:47;9.98;;;5.47;;
20232;SDS011;37438;55.674;13.074;2023-03-23T10:37:05;13.07;;;6.38;;
20232;SDS011;37438;55.674;13.074;2023-03-23T10:40:21;12.73;;;7.63;;
20232;SDS011;37438;55.674;13.074;2023-03-23T10:43:30;11.50;;;6.93;;
20232;SDS011;37438;55.674;13.074;2023-03-23T10:46:40;13.75;;;7.13;;
20232;SDS011;37438;55.674;13.074;2023-03-23T10:49:57;9.73;;;5.90;;
20232;SDS011;37438;55.674;13.074;2023-03-23T10:53:03;8.35;;;5.22;;
20232;SDS011;37438;55.674;13.074;2023-03-23T10:56:23;8.35;;;5.03;;
20232;SDS011;37438;55.674;13.074;2023-03-23T10:59:29;9.02;;;6.10;;
20232;SDS011;37438;55.674;13.074;2023-03-23T11:02:38;12.00;;;6.03;;
20232;SDS011;37438;55.674;13.074;2023-03-23T11:05:51;11.80;;;5.82;;
20232;SDS011;37438;55.674;13.074;2023-03-23T11:09:13;10.00;;;6.35;;
20232;SDS011;37438;55.674;13.074;2023-03-23T11:12:19;8.95;;;6.50;;
20232;SDS011;37438;55.674;13.074;2023-03-23T11:18:57;8.40;;;4.93;;
20232;SDS011;37438;55.674;13.074;2023-03-23T11:25:15;9.93;;;4.07;;
20232;SDS011;37438;55.674;13.074;2023-03-23T11:28:19;7.53;;;4.10;;
20232;SDS011;37438;55.674;13.074;2023-03-23T11:31:23;9.48;;;4.68;;
20232;SDS011;37438;55.674;13.074;2023-03-23T11:34:31;7.07;;;3.70;;
20232;SDS011;37438;55.674;13.074;2023-03-23T11:37:43;7.25;;;3.67;;
20232;SDS011;37438;55.674;13.074;2023-03-23T11:40:50;4.65;;;2.92;;
20232;SDS011;37438;55.674;13.074;2023-03-23T11:43:55;7.15;;;2.75;;
20232;SDS011;37438;55.674;13.074;2023-03-23T11:50:23;7.53;;;2.20;;
20232;SDS011;37438;55.674;13.074;2023-03-23T11:57:10;7.55;;;1.95;;
20232;SDS011;37438;55.674;13.074;2023-03-23T12:00:22;5.97;;;2.38;;
20232;SDS011;37438;55.674;13.074;2023-03-23T12:03:39;13.50;;;2.33;;
20232;SDS011;37438;55.674;13.074;2023-03-23T12:10:33;5.22;;;1.10;;
20232;SDS011;37438;55.674;13.074;2023-03-23T12:17:23;12.50;;;2.15;;
20232;SDS011;37438;55.674;13.074;2023-03-23T12:20:48;7.20;;;1.83;;
20232;SDS011;37438;55.674;13.074;2023-03-23T12:31:01;9.48;;;2.45;;
20232;SDS011;37438;55.674;13.074;2023-03-23T12:37:25;10.85;;;1.73;;
20232;SDS011;37438;55.674;13.074;2023-03-23T12:40:58;7.72;;;2.42;;
20232;SDS011;37438;55.674;13.074;2023-03-23T12:44:06;11.73;;;2.40;;
20232;SDS011;37438;55.674;13.074;2023-03-23T12:50:42;15.50;;;2.90;;
20232;SDS011;37438;55.674;13.074;2023-03-23T12:57:19;15.63;;;3.28;;
20232;SDS011;37438;55.674;13.074;2023-03-23T13:00:29;13.88;;;3.33;;
20232;SDS011;37438;55.674;13.074;2023-03-23T13:07:14;13.05;;;2.85;;
20232;SDS011;37438;55.674;13.074;2023-03-23T13:10:32;18.70;;;4.30;;
20232;SDS011;37438;55.674;13.074;2023-03-23T13:13:45;14.40;;;3.25;;
20232;SDS011;37438;55.674;13.074;2023-03-23T13:20:48;12.48;;;2.67;;
20232;SDS011;37438;55.674;13.074;2023-03-23T13:24:09;22.45;;;3.88;;
20232;SDS011;37438;55.674;13.074;2023-03-23T13:27:16;16.80;;;3.53;;
20232;SDS011;37438;55.674;13.074;2023-03-23T13:30:20;18.00;;;3.60;;
20232;SDS011;37438;55.674;13.074;2023-03-23T13:33:25;20.17;;;3.47;;
20232;SDS011;37438;55.674;13.074;2023-03-23T13:36:59;17.23;;;3.50;;
20232;SDS011;37438;55.674;13.074;2023-03-23T13:43:29;21.83;;;3.75;;
20232;SDS011;37438;55.674;13.074;2023-03-23T13:46:35;20.65;;;4.15;;
20232;SDS011;37438;55.674;13.074;2023-03-23T13:49:45;19.17;;;4.50;;
20232;SDS011;37438;55.674;13.074;2023-03-23T13:53:14;18.95;;;4.15;;
20232;SDS011;37438;55.674;13.074;2023-03-23T14:06:21;20.20;;;4.35;;
20232;SDS011;37438;55.674;13.074;2023-03-23T14:09:41;19.50;;;4.03;;
20232;SDS011;37438;55.674;13.074;2023-03-23T14:12:48;16.45;;;4.15;;
20232;SDS011;37438;55.674;13.074;2023-03-23T14:15:59;18.92;;;4.43;;
20232;SDS011;37438;55.674;13.074;2023-03-23T14:19:03;14.70;;;3.72;;
20232;SDS011;37438;55.674;13.074;2023-03-23T14:22:32;19.85;;;4.78;;
20232;SDS011;37438;55.674;13.074;2023-03-23T14:25:37;19.73;;;4.18;;
20232;SDS011;37438;55.674;13.074;2023-03-23T14:28:42;11.23;;;2.42;;
20232;SDS011;37438;55.674;13.074;2023-03-23T14:31:52;17.35;;;3.45;;
20232;SDS011;37438;55.674;13.074;2023-03-23T14:35:04;25.40;;;4.28;;
20232;SDS011;37438;55.674;13.074;2023-03-23T14:38:16;17.92;;;4.03;;
20232;SDS011;37438;55.674;13.074;2023-03-23T14:41:22;16.60;;;4.55;;
20232;SDS011;37438;55.674;13.074;2023-03-23T14:44:34;14.90;;;3.58;;
20232;SDS011;37438;55.674;13.074;2023-03-23T14:47:46;21.27;;;4.88;;
20232;SDS011;37438;55.674;13.074;2023-03-23T14:51:17;29.02;;;5.03;;
20232;SDS011;37438;55.674;13.074;2023-03-23T14:54:23;18.45;;;4.60;;
20232;SDS011;37438;55.674;13.074;2023-03-23T14:57:28;17.63;;;4.05;;
20232;SDS011;37438;55.674;13.074;2023-03-23T15:00:33;20.63;;;4.13;;
20232;SDS011;37438;55.674;13.074;2023-03-23T15:04:08;14.30;;;3.90;;
20232;SDS011;37438;55.674;13.074;2023-03-23T15:07:12;27.77;;;4.88;;
20232;SDS011;37438;55.674;13.074;2023-03-23T15:10:20;20.30;;;4.97;;
20232;SDS011;37438;55.674;13.074;2023-03-23T15:13:24;18.02;;;4.15;;
20232;SDS011;37438;55.674;13.074;2023-03-23T15:16:28;23.80;;;4.63;;
20232;SDS011;37438;55.674;13.074;2023-03-23T15:19:34;21.23;;;6.07;;
20232;SDS011;37438;55.674;13.074;2023-03-23T15:22:46;20.83;;;4.70;;
20232;SDS011;37438;55.674;13.074;2023-03-23T15:25:51;18.55;;;3.67;;
20232;SDS011;37438;55.674;13.074;2023-03-23T15:29:04;21.63;;;4.32;;
20232;SDS011;37438;55.674;13.074;2023-03-23T15:32:22;21.52;;;4.15;;
20232;SDS011;37438;55.674;13.074;2023-03-23T15:35:35;15.52;;;3.63;;
20232;SDS011;37438;55.674;13.074;2023-03-23T15:38:42;23.80;;;5.10;;
20232;SDS011;37438;55.674;13.074;2023-03-23T15:41:48;19.27;;;4.88;;
20232;SDS011;37438;55.674;13.074;2023-03-23T15:48:30;18.60;;;4.93;;
20232;SDS011;37438;55.674;13.074;2023-03-23T15:51:54;19.50;;;4.60;;
20232;SDS011;37438;55.674;13.074;2023-03-23T15:54:57;19.10;;;3.88;;
20232;SDS011;37438;55.674;13.074;2023-03-23T15:58:01;21.25;;;5.32;;
20232;SDS011;37438;55.674;13.074;2023-03-23T16:01:20;22.02;;;3.38;;
20232;SDS011;37438;55.674;13.074;2023-03-23T16:04:30;18.17;;;4.13;;
20232;SDS011;37438;55.674;13.074;2023-03-23T16:07:36;15.82;;;4.45;;
